Terminal Aerodrome Forecast
Issued by NWS

Home | Current Version | Previous Version | Text Only | Print | Product List | Glossary On
Versions: 1 2 3 4 5 6 7 8 9 10 11 12 13
000
FTUS45 KLKN 081120
TAFEKO
TAF
KEKO 081120Z 0812/0912 08006KT 3SM -SHSN OVC025
     FM082200 18008KT 5SM -RASN BKN025 OVC040
     FM090400 21010G16KT 5SM -RASN BKN025 OVC040=

USA.gov is the U.S. government's official web portal to all federal, state and local government web resources and services.